createdAt,value
2019-04-27T00:00:39.329Z,99667.50
2019-04-27T00:03:23.415Z,99670.72
2019-04-27T00:06:05.332Z,99677.92
2019-04-27T00:08:43.528Z,99676.08
2019-04-27T00:11:22.674Z,99685.14
2019-04-27T00:13:57.795Z,99678.66
2019-04-27T00:16:50.893Z,99684.08
2019-04-27T00:19:35.350Z,99685.55
2019-04-27T00:22:14.894Z,99687.39
2019-04-27T00:24:47.678Z,99676.08
2019-04-27T00:27:20.457Z,99684.02
2019-04-27T00:30:20.235Z,99685.41
2019-04-27T00:32:53.565Z,99684.12
2019-04-27T00:35:30.926Z,99688.05
2019-04-27T00:38:05.238Z,99686.84
2019-04-27T00:40:39.471Z,99689.87
2019-04-27T00:43:14.044Z,99675.00
2019-04-27T00:45:46.961Z,99684.04
2019-04-27T00:48:19.588Z,99690.04
2019-04-27T00:50:52.957Z,99698.18
2019-04-27T00:53:25.613Z,99696.52
2019-04-27T00:56:03.923Z,99724.84
2019-04-27T00:58:38.953Z,99718.85
2019-04-27T01:01:25.257Z,99726.58
2019-04-27T01:04:05.356Z,99741.97
2019-04-27T01:06:38.346Z,99736.36
2019-04-27T01:09:13.739Z,99738.70
2019-04-27T01:11:46.524Z,99752.44
2019-04-27T01:14:19.147Z,99759.74
2019-04-27T01:16:52.198Z,99760.30
2019-04-27T01:19:24.870Z,99762.06
2019-04-27T01:21:58.589Z,99769.26
2019-04-27T01:24:32.169Z,99772.85
2019-04-27T01:27:21.282Z,99765.44
2019-04-27T01:29:55.554Z,99767.70
2019-04-27T01:32:29.257Z,99760.32
2019-04-27T01:35:02.244Z,99764.76
2019-04-27T01:37:35.995Z,99762.66
2019-04-27T01:40:09.794Z,99769.32
2019-04-27T01:42:42.687Z,99768.03
2019-04-27T01:45:15.366Z,99776.84
2019-04-27T01:47:49.261Z,99775.52
2019-04-27T01:50:22.205Z,99783.50
2019-04-27T01:52:55.595Z,99787.05
2019-04-27T01:55:29.817Z,99787.08
2019-04-27T01:58:02.805Z,99769.09
2019-04-27T02:00:56.374Z,99795.09
2019-04-27T02:03:41.232Z,99810.13
2019-04-27T02:06:13.922Z,99805.38
2019-04-27T02:08:46.597Z,99806.33
2019-04-27T02:11:19.285Z,99819.45
2019-04-27T02:13:52.061Z,99817.78
2019-04-27T02:16:29.016Z,99826.55
2019-04-27T02:19:01.927Z,99823.45
2019-04-27T02:21:35.221Z,99832.70
2019-04-27T02:24:09.728Z,99827.45
2019-04-27T02:26:43.537Z,99834.52
2019-04-27T02:29:24.737Z,99834.09
2019-04-27T02:32:10.464Z,99834.97
2019-04-27T02:34:50.290Z,99834.16
2019-04-27T02:37:21.912Z,99832.86
2019-04-27T02:39:54.601Z,99822.34
2019-04-27T02:42:29.816Z,99825.91
2019-04-27T02:45:02.453Z,99832.50
2019-04-27T02:47:35.191Z,99832.93
2019-04-27T02:50:10.753Z,99835.56
2019-04-27T02:52:44.335Z,99831.64
2019-04-27T02:55:19.563Z,99829.46
2019-04-27T02:57:52.044Z,99833.00
2019-04-27T03:00:25.043Z,99838.28
2019-04-27T03:03:02.234Z,99848.77
2019-04-27T03:05:34.685Z,99850.11
2019-04-27T03:08:09.813Z,99853.25
2019-04-27T03:10:42.206Z,99855.86
2019-04-27T03:13:20.088Z,99859.42
2019-04-27T03:15:54.872Z,99863.83
2019-04-27T03:18:33.186Z,99869.10
2019-04-27T03:21:13.036Z,99870.88
2019-04-27T03:23:44.858Z,99871.30
2019-04-27T03:26:22.849Z,99865.19
2019-04-27T03:28:55.629Z,99878.81
2019-04-27T03:31:32.309Z,99878.37
2019-04-27T03:34:05.388Z,99872.66
2019-04-27T03:36:39.528Z,99838.81
2019-04-27T03:39:12.090Z,99850.31
2019-04-27T03:41:44.866Z,99874.05
2019-04-27T03:44:19.201Z,99870.97
2019-04-27T03:46:52.088Z,99863.95
2019-04-27T03:49:34.428Z,99860.42
2019-04-27T03:52:03.053Z,99874.06
2019-04-27T03:54:46.795Z,99875.39
2019-04-27T03:57:21.627Z,99868.31
2019-04-27T04:00:02.828Z,99876.20
2019-04-27T04:02:37.019Z,99872.69
2019-04-27T04:05:10.148Z,99878.82
2019-04-27T04:07:43.406Z,99873.56
2019-04-27T04:10:19.756Z,99875.34
2019-04-27T04:13:01.397Z,99889.83
2019-04-27T04:15:52.768Z,99897.73
2019-04-27T04:18:29.351Z,99897.28
2019-04-27T04:21:01.932Z,99911.77
2019-04-27T04:23:34.903Z,99919.64
2019-04-27T04:26:09.797Z,99917.90
2019-04-27T04:28:42.418Z,99906.94
2019-04-27T04:31:15.812Z,99891.56
2019-04-27T04:33:49.363Z,99906.06
2019-04-27T04:36:22.091Z,99902.95
2019-04-27T04:38:55.029Z,99905.20
2019-04-27T04:41:30.382Z,99910.84
2019-04-27T04:44:05.457Z,99913.48
2019-04-27T04:46:55.861Z,99915.20
2019-04-27T04:49:29.623Z,99921.83
2019-04-27T04:52:02.967Z,99931.45
2019-04-27T04:54:35.934Z,99932.80
2019-04-27T04:57:09.449Z,99942.03
2019-04-27T04:59:43.848Z,99940.75
2019-04-27T05:02:19.104Z,99948.23
2019-04-27T05:04:51.977Z,99955.27
2019-04-27T05:07:24.859Z,99954.77
2019-04-27T05:09:58.750Z,99963.17
2019-04-27T05:12:32.059Z,99965.73
2019-04-27T05:15:05.579Z,99956.09
2019-04-27T05:17:39.823Z,99950.84
2019-04-27T05:20:29.481Z,99949.92
2019-04-27T05:23:02.544Z,99951.27
2019-04-27T05:25:35.218Z,99950.34
2019-04-27T05:28:09.590Z,99947.64
2019-04-27T05:30:42.213Z,99954.23
2019-04-27T05:33:15.308Z,99960.39
2019-04-27T05:35:49.191Z,99967.43
2019-04-27T05:38:22.254Z,99966.10
2019-04-27T05:40:54.879Z,99967.02
2019-04-27T05:43:32.261Z,99979.77
2019-04-27T05:46:35.672Z,99987.64
2019-04-27T05:49:11.219Z,99985.02
2019-04-27T05:51:43.889Z,99985.00
2019-04-27T05:54:19.130Z,99985.45
2019-04-27T05:56:51.612Z,99982.45
2019-04-27T05:59:24.285Z,99991.23
2019-04-27T06:01:56.959Z,99990.39
2019-04-27T06:04:30.348Z,99994.81
2019-04-27T06:07:03.039Z,99991.33
2019-04-27T06:09:35.728Z,100006.27
2019-04-27T06:12:08.987Z,100004.55
2019-04-27T06:14:41.839Z,100008.94
2019-04-27T06:17:14.471Z,100000.63
2019-04-27T06:19:47.152Z,99999.33
2019-04-27T06:22:19.826Z,99999.75
2019-04-27T06:24:54.532Z,100001.50
2019-04-27T06:27:30.206Z,100001.95
2019-04-27T06:30:01.105Z,100012.54
2019-04-27T06:32:33.672Z,100019.58
2019-04-27T06:35:10.832Z,100023.53
2019-04-27T06:37:43.481Z,100018.71
2019-04-27T06:40:16.113Z,100028.78
2019-04-27T06:42:48.844Z,100032.70
2019-04-27T06:45:22.225Z,100034.46
2019-04-27T06:47:54.913Z,100036.23
2019-04-27T06:50:27.597Z,100037.11
2019-04-27T06:53:00.274Z,100048.08
2019-04-27T06:55:32.958Z,100055.95
2019-04-27T06:58:06.243Z,100058.15
2019-04-27T07:00:39.512Z,100064.27
2019-04-27T07:03:12.575Z,100069.12
2019-04-27T07:05:45.919Z,100064.73
2019-04-27T07:08:18.741Z,100065.19
2019-04-27T07:10:51.385Z,100066.95
2019-04-27T07:13:24.066Z,100080.53
2019-04-27T07:15:56.689Z,100066.95
2019-04-27T07:18:29.314Z,100064.34
2019-04-27T07:21:01.999Z,100076.64
2019-04-27T07:23:38.769Z,100081.45
2019-04-27T07:26:11.848Z,100088.92
2019-04-27T07:28:44.486Z,100079.71
2019-04-27T07:31:19.289Z,100069.58
2019-04-27T07:33:53.573Z,100071.35
2019-04-27T07:36:26.515Z,100083.62
2019-04-27T07:38:59.920Z,100076.18
2019-04-27T07:41:34.493Z,100081.88
2019-04-27T07:44:10.215Z,100081.88
2019-04-27T07:46:42.866Z,100091.95
2019-04-27T07:49:15.598Z,100106.88
2019-04-27T07:51:49.013Z,100096.77
2019-04-27T07:54:21.877Z,100102.06
2019-04-27T07:56:55.269Z,100095.91
2019-04-27T07:59:29.460Z,100097.23
2019-04-27T08:02:02.370Z,100098.56
2019-04-27T08:04:35.055Z,100093.31
2019-04-27T08:07:09.151Z,100094.23
2019-04-27T08:09:42.256Z,100104.72
2019-04-27T08:12:15.034Z,100122.72
2019-04-27T08:14:49.059Z,100119.13
2019-04-27T08:17:22.133Z,100119.16
2019-04-27T08:19:54.814Z,100116.55
2019-04-27T08:22:29.138Z,100115.65
2019-04-27T08:25:02.013Z,100116.06
2019-04-27T08:27:39.424Z,100121.39
2019-04-27T08:30:14.633Z,100127.09
2019-04-27T08:32:49.708Z,100117.89
2019-04-27T08:35:22.871Z,100123.60
2019-04-27T08:37:55.554Z,100128.44
2019-04-27T08:40:29.288Z,100131.06
2019-04-27T08:43:02.138Z,100127.09
2019-04-27T08:45:35.525Z,100136.30
2019-04-27T08:48:09.284Z,100140.24
2019-04-27T08:50:42.346Z,100131.92
2019-04-27T08:53:15.002Z,100138.08
2019-04-27T08:55:49.306Z,100142.90
2019-04-27T08:58:21.998Z,100153.00
2019-04-27T09:00:54.677Z,100155.17
2019-04-27T09:03:29.279Z,100165.25
2019-04-27T09:06:02.346Z,100161.34
2019-04-27T09:08:42.463Z,100160.40
2019-04-27T09:11:16.677Z,100160.83
2019-04-27T09:13:50.974Z,100159.10
2019-04-27T09:16:28.920Z,100171.38
2019-04-27T09:19:03.393Z,100170.07
2019-04-27T09:21:54.403Z,100172.29
2019-04-27T09:24:29.034Z,100166.13
2019-04-27T09:27:02.840Z,100164.80
2019-04-27T09:29:35.463Z,100162.61
2019-04-27T09:32:08.973Z,100150.80
2019-04-27T09:34:42.414Z,100154.34
2019-04-27T09:37:16.003Z,100167.58
2019-04-27T09:39:50.129Z,100163.63
2019-04-27T09:42:22.856Z,100159.23
2019-04-27T09:44:55.846Z,100144.31
2019-04-27T09:47:28.885Z,100147.38
2019-04-27T09:50:01.504Z,100139.03
2019-04-27T09:52:35.863Z,100121.94
2019-04-27T09:55:09.479Z,100115.34
2019-04-27T09:57:42.264Z,100145.08
2019-04-27T10:00:16.054Z,100174.52
2019-04-27T10:02:48.951Z,100178.02
2019-04-27T10:05:21.632Z,100174.45
2019-04-27T10:07:54.312Z,100178.42
2019-04-27T10:10:27.002Z,100174.50
2019-04-27T10:12:59.765Z,100166.09
2019-04-27T10:15:32.862Z,100176.19
2019-04-27T10:18:06.549Z,100175.33
2019-04-27T10:20:41.016Z,100171.88
2019-04-27T10:23:13.763Z,100169.77
2019-04-27T10:25:46.447Z,100171.94
2019-04-27T10:28:19.219Z,100178.48
2019-04-27T10:30:51.904Z,100176.81
2019-04-27T10:33:25.815Z,100172.41
2019-04-27T10:35:58.694Z,100172.90
2019-04-27T10:38:32.590Z,100167.61
2019-04-27T10:41:05.637Z,100175.51
2019-04-27T10:43:40.935Z,100172.45
2019-04-27T10:46:13.610Z,100174.64
2019-04-27T10:48:46.397Z,100172.01
2019-04-27T10:51:19.075Z,100176.84
2019-04-27T10:53:51.749Z,100168.91
2019-04-27T10:56:25.533Z,100167.17
2019-04-27T10:58:58.741Z,100174.66
2019-04-27T11:01:32.247Z,100177.72
2019-04-27T11:04:07.685Z,100177.27
2019-04-27T11:06:42.096Z,100177.28
2019-04-27T11:09:16.359Z,100168.93
2019-04-27T11:11:49.002Z,100174.20
2019-04-27T11:14:21.684Z,100176.39
2019-04-27T11:16:56.000Z,100171.13
2019-04-27T11:19:28.682Z,100176.42
2019-04-27T11:22:01.356Z,100180.34
2019-04-27T11:24:35.475Z,100179.48
2019-04-27T11:27:08.155Z,100183.81
2019-04-27T11:29:40.828Z,100170.17
2019-04-27T11:32:13.451Z,100176.35
2019-04-27T11:34:59.498Z,100180.33
2019-04-27T11:37:35.684Z,100179.44
2019-04-27T11:40:15.201Z,100193.96
2019-04-27T11:42:48.488Z,100190.45
2019-04-27T11:45:22.656Z,100183.86
2019-04-27T11:47:56.995Z,100191.75
2019-04-27T11:50:29.700Z,100187.36
2019-04-27T11:53:02.389Z,100194.38
2019-04-27T11:55:35.775Z,100203.20
2019-04-27T11:58:09.070Z,100201.01
2019-04-27T12:00:42.260Z,100204.55
2019-04-27T12:03:16.574Z,100200.13
2019-04-27T12:05:49.472Z,100202.33
2019-04-27T12:08:22.142Z,100200.13
2019-04-27T12:10:55.719Z,100192.66
2019-04-27T12:13:28.736Z,100192.21
2019-04-27T12:16:01.517Z,100195.31
2019-04-27T12:18:34.138Z,100190.03
2019-04-27T12:21:06.876Z,100190.91
2019-04-27T12:23:41.214Z,100186.94
2019-04-27T12:26:15.925Z,100191.34
2019-04-27T12:28:50.287Z,100187.41
2019-04-27T12:31:28.744Z,100192.23
2019-04-27T12:34:01.431Z,100195.30
2019-04-27T12:36:35.818Z,100189.12
2019-04-27T12:39:11.920Z,100185.58
2019-04-27T12:41:46.193Z,100193.39
2019-04-27T12:44:19.315Z,100192.89
2019-04-27T12:46:52.139Z,100192.95
2019-04-27T12:49:26.186Z,100195.05
2019-04-27T12:51:59.190Z,100199.87
2019-04-27T12:54:39.447Z,100202.09
2019-04-27T12:57:13.881Z,100199.07
2019-04-27T12:59:48.596Z,100196.35
2019-04-27T13:02:22.917Z,100192.01
2019-04-27T13:04:57.238Z,100185.33
2019-04-27T13:07:30.836Z,100198.55
2019-04-27T13:10:06.886Z,100189.25
2019-04-27T13:12:40.280Z,100188.38
2019-04-27T13:15:13.883Z,100198.42
2019-04-27T13:17:46.569Z,100190.33
2019-04-27T13:20:20.369Z,100199.61
2019-04-27T13:22:53.157Z,100199.19
2019-04-27T13:25:25.835Z,100196.19
2019-04-27T13:27:59.636Z,100201.14
2019-04-27T13:30:32.625Z,100207.45
2019-04-27T13:33:05.508Z,100206.10
2019-04-27T13:35:38.189Z,100209.53
2019-04-27T13:38:10.978Z,100211.31
2019-04-27T13:40:43.594Z,100200.02
2019-04-27T13:43:23.702Z,100206.22
2019-04-27T13:46:08.214Z,100196.44
2019-04-27T13:48:58.804Z,100194.80
2019-04-27T13:51:36.045Z,100191.56
2019-04-27T13:54:18.828Z,100200.02
2019-04-27T13:56:43.970Z,100197.02
2019-04-27T13:59:18.278Z,100195.57
2019-04-27T14:01:50.906Z,100193.80
2019-04-27T14:04:24.137Z,100185.55
2019-04-27T14:06:58.878Z,100184.73
2019-04-27T14:09:31.554Z,100184.81
2019-04-27T14:12:21.337Z,100175.27
2019-04-27T14:14:54.629Z,100173.55
2019-04-27T14:17:29.200Z,100182.45
2019-04-27T14:20:01.627Z,100181.95
2019-04-27T14:22:34.309Z,100180.19
2019-04-27T14:25:08.670Z,100177.89
2019-04-27T14:27:42.275Z,100177.44
2019-04-27T14:30:17.462Z,100187.97
2019-04-27T14:32:50.141Z,100183.09
2019-04-27T14:35:22.827Z,100191.65
2019-04-27T14:37:55.498Z,100189.11
2019-04-27T14:40:28.791Z,100186.45
2019-04-27T14:43:01.675Z,100174.80
2019-04-27T14:45:34.357Z,100168.71
2019-04-27T14:48:08.253Z,100172.77
2019-04-27T14:50:41.351Z,100183.97
2019-04-27T14:53:14.028Z,100185.05
2019-04-27T14:55:46.660Z,100173.56
2019-04-27T14:58:19.513Z,100170.78
2019-04-27T15:00:52.378Z,100176.88
2019-04-27T15:03:25.062Z,100183.39
2019-04-27T15:05:57.837Z,100185.61
2019-04-27T15:08:30.461Z,100183.55
2019-04-27T15:11:04.197Z,100184.38
2019-04-27T15:13:42.602Z,100180.95
2019-04-27T15:16:12.548Z,100177.97
2019-04-27T15:18:50.122Z,100191.62
2019-04-27T15:21:25.470Z,100189.77
2019-04-27T15:23:57.142Z,100183.81
2019-04-27T15:26:30.828Z,100181.69
2019-04-27T15:29:05.359Z,100193.58
2019-04-27T15:31:40.904Z,100184.16
2019-04-27T15:34:30.329Z,100187.31
2019-04-27T15:37:10.329Z,100178.95
2019-04-27T15:39:53.368Z,100180.25
2019-04-27T15:42:51.172Z,100184.09
2019-04-27T15:45:24.350Z,100185.33
2019-04-27T15:47:55.765Z,100183.36
2019-04-27T15:50:32.101Z,100191.30
2019-04-27T15:53:06.729Z,100193.11
2019-04-27T15:55:39.447Z,100188.92
2019-04-27T15:58:11.398Z,100185.76
2019-04-27T16:00:44.174Z,100182.33
2019-04-27T16:03:18.401Z,100189.03
2019-04-27T16:05:51.327Z,100183.25
2019-04-27T16:08:24.060Z,100186.24
2019-04-27T16:10:58.909Z,100184.88
2019-04-27T16:13:33.151Z,100175.84
2019-04-27T16:16:08.333Z,100165.89
2019-04-27T16:18:41.523Z,100164.47
2019-04-27T16:21:14.920Z,100163.85
2019-04-27T16:23:48.086Z,100164.64
2019-04-27T16:26:21.153Z,100171.79
2019-04-27T16:28:54.491Z,100173.27
2019-04-27T16:31:31.493Z,100164.20
2019-04-27T16:34:02.869Z,100148.01
2019-04-27T16:36:39.406Z,100147.36
2019-04-27T16:39:10.845Z,100152.02
2019-04-27T16:41:45.068Z,100143.72
2019-04-27T16:44:17.751Z,100141.06
2019-04-27T16:46:50.525Z,100143.97
2019-04-27T16:49:24.946Z,100141.67
2019-04-27T16:51:59.067Z,100142.37
2019-04-27T16:54:32.151Z,100141.61
2019-04-27T16:57:05.485Z,100145.11
2019-04-27T16:59:44.067Z,100150.73
2019-04-27T17:02:20.505Z,100150.86
2019-04-27T17:04:52.820Z,100141.73
2019-04-27T17:07:23.834Z,100140.48
2019-04-27T17:09:59.432Z,100143.48
2019-04-27T17:12:34.418Z,100147.04
2019-04-27T17:15:22.865Z,100142.05
2019-04-27T17:18:12.957Z,100148.39
2019-04-27T17:20:52.400Z,100157.03
2019-04-27T17:23:31.231Z,100159.44
2019-04-27T17:26:13.917Z,100169.27
2019-04-27T17:28:51.213Z,100171.16
2019-04-27T17:31:25.440Z,100162.97
2019-04-27T17:34:00.543Z,100172.07
2019-04-27T17:36:34.371Z,100173.53
2019-04-27T17:39:10.279Z,100168.33
2019-04-27T17:41:49.287Z,100168.88
2019-04-27T17:44:22.730Z,100169.88
2019-04-27T17:46:51.539Z,100172.11
2019-04-27T17:49:24.332Z,100178.34
2019-04-27T17:51:58.584Z,100184.13
2019-04-27T17:54:32.025Z,100175.84
2019-04-27T17:57:04.718Z,100167.54
2019-04-27T17:59:37.593Z,100169.73
2019-04-27T18:02:10.936Z,100161.87
2019-04-27T18:04:44.545Z,100157.06
2019-04-27T18:07:18.989Z,100166.75
2019-04-27T18:09:51.691Z,100165.41
2019-04-27T18:12:24.372Z,100170.27
2019-04-27T18:14:58.146Z,100170.69
2019-04-27T18:17:33.237Z,100180.34
2019-04-27T18:20:11.764Z,100179.47
2019-04-27T18:22:46.155Z,100183.83
2019-04-27T18:25:18.929Z,100185.59
2019-04-27T18:27:54.680Z,100186.81
2019-04-27T18:30:40.509Z,100189.44
2019-04-27T18:33:08.799Z,100185.00
2019-04-27T18:35:41.523Z,100192.87
2019-04-27T18:38:14.213Z,100192.42
2019-04-27T18:40:48.633Z,100194.15
2019-04-27T18:43:21.509Z,100205.05
2019-04-27T18:45:54.292Z,100206.31
2019-04-27T18:48:35.622Z,100205.84
2019-04-27T18:51:25.287Z,100211.93
2019-04-27T18:54:03.467Z,100219.78
2019-04-27T18:56:38.487Z,100222.80
2019-04-27T18:59:08.864Z,100222.75
2019-04-27T19:01:41.602Z,100227.93
2019-04-27T19:04:14.225Z,100226.56
2019-04-27T19:06:46.968Z,100235.28
2019-04-27T19:09:19.634Z,100240.45
2019-04-27T19:11:56.357Z,100241.24
2019-04-27T19:14:28.281Z,100241.58
2019-04-27T19:17:01.567Z,100244.07
2019-04-27T19:19:34.249Z,100247.44
2019-04-27T19:22:08.965Z,100243.00
2019-04-27T19:24:42.153Z,100238.60
2019-04-27T19:27:19.098Z,100240.27
2019-04-27T19:29:54.838Z,100250.77
2019-04-27T19:32:28.905Z,100245.05
2019-04-27T19:35:02.922Z,100246.25
2019-04-27T19:37:35.695Z,100236.17
2019-04-27T19:40:09.966Z,100237.87
2019-04-27T19:42:42.692Z,100235.58
2019-04-27T19:45:20.806Z,100232.38
2019-04-27T19:47:52.757Z,100238.47
2019-04-27T19:50:25.446Z,100238.00
2019-04-27T19:52:58.790Z,100239.78
2019-04-27T19:55:31.825Z,100243.63
2019-04-27T19:58:05.221Z,100246.58
2019-04-27T20:00:39.819Z,100253.01
2019-04-27T20:03:14.263Z,100254.31
2019-04-27T20:05:46.890Z,100249.81
2019-04-27T20:08:21.801Z,100246.63
2019-04-27T20:10:54.454Z,100254.87
2019-04-27T20:13:27.124Z,100251.30
2019-04-27T20:16:00.942Z,100254.34
2019-04-27T20:18:34.627Z,100251.25
2019-04-27T20:21:07.978Z,100253.78
2019-04-27T20:23:40.875Z,100253.31
2019-04-27T20:26:13.799Z,100259.02
2019-04-27T20:28:46.581Z,100269.04
2019-04-27T20:31:20.596Z,100262.80
2019-04-27T20:33:54.115Z,100259.59
2019-04-27T20:36:26.971Z,100262.48
2019-04-27T20:39:01.292Z,100266.39
2019-04-27T20:41:35.923Z,100270.33
2019-04-27T20:44:08.704Z,100273.24
2019-04-27T20:46:41.528Z,100273.50
2019-04-27T20:49:21.742Z,100272.11
2019-04-27T20:52:01.000Z,100270.80
2019-04-27T20:54:33.802Z,100271.70
2019-04-27T20:57:07.460Z,100269.97
2019-04-27T20:59:40.238Z,100279.50
2019-04-27T21:02:32.085Z,100282.48
2019-04-27T21:05:10.670Z,100286.88
2019-04-27T21:08:02.305Z,100296.47
2019-04-27T21:10:34.983Z,100294.22
2019-04-27T21:13:07.612Z,100293.36
2019-04-27T21:15:41.892Z,100284.19
2019-04-27T21:18:15.117Z,100276.33
2019-04-27T21:20:47.854Z,100274.55
2019-04-27T21:23:21.073Z,100267.11
2019-04-27T21:25:53.924Z,100261.41
2019-04-27T21:28:27.210Z,100266.57
2019-04-27T21:30:59.893Z,100265.21
2019-04-27T21:33:32.586Z,100267.39
2019-04-27T21:36:05.259Z,100269.84
2019-04-27T21:38:37.936Z,100264.53
2019-04-27T21:41:10.615Z,100258.95
2019-04-27T21:43:43.820Z,100260.44
2019-04-27T21:46:16.792Z,100248.36
2019-04-27T21:48:49.477Z,100243.19
2019-04-27T21:51:22.156Z,100244.48
2019-04-27T21:53:59.237Z,100239.20
2019-04-27T21:56:31.917Z,100242.30
2019-04-27T21:59:04.546Z,100248.01
2019-04-27T22:01:37.280Z,100252.81
2019-04-27T22:04:11.538Z,100247.58
2019-04-27T22:06:44.214Z,100252.71
2019-04-27T22:09:16.948Z,100259.73
2019-04-27T22:11:51.086Z,100258.36
2019-04-27T22:14:24.049Z,100259.61
2019-04-27T22:16:56.830Z,100259.07
2019-04-27T22:19:31.106Z,100260.73
2019-04-27T22:22:05.318Z,100258.88
2019-04-27T22:24:42.790Z,100258.57
2019-04-27T22:27:13.992Z,100254.56
2019-04-27T22:29:48.324Z,100253.61
2019-04-27T22:32:21.061Z,100257.11
2019-04-27T22:34:53.739Z,100257.05
2019-04-27T22:37:26.523Z,100262.21
2019-04-27T22:40:09.494Z,100253.53
2019-04-27T22:43:01.590Z,100262.02
2019-04-27T22:45:36.100Z,100258.23
2019-04-27T22:48:09.182Z,100258.91
2019-04-27T22:50:41.863Z,100255.86
2019-04-27T22:53:15.819Z,100258.90
2019-04-27T22:56:05.958Z,100255.53
2019-04-27T22:58:40.690Z,100258.16
2019-04-27T23:01:22.069Z,100258.61
2019-04-27T23:04:05.855Z,100260.36
2019-04-27T23:06:39.202Z,100258.61
2019-04-27T23:09:13.523Z,100256.50
2019-04-27T23:11:46.201Z,100255.25
2019-04-27T23:14:21.070Z,100262.77
2019-04-27T23:17:11.538Z,100259.38
2019-04-27T23:19:44.664Z,100261.19
2019-04-27T23:22:17.610Z,100271.78
2019-04-27T23:24:51.862Z,100268.27
2019-04-27T23:27:24.908Z,100268.27
2019-04-27T23:29:57.589Z,100270.89
2019-04-27T23:32:31.653Z,100267.46
2019-04-27T23:35:04.683Z,100260.55
2019-04-27T23:37:37.366Z,100250.09
2019-04-27T23:40:11.167Z,100256.28
2019-04-27T23:42:43.999Z,100250.14
2019-04-27T23:45:18.367Z,100245.34
2019-04-27T23:47:50.994Z,100241.47
2019-04-27T23:50:24.967Z,100242.29
2019-04-27T23:53:02.153Z,100246.10
2019-04-27T23:55:36.461Z,100245.67
2019-04-27T23:58:09.150Z,100242.16
